Time;durP1;ratioP1;P1;durP2;ratioP2;P2;SDS_P1;SDS_P2;PMS_P1;PMS_P2;Temp;Humidity;BMP_temperature;BMP_pressure;BME280_temperature;BME280_humidity;BME280_pressure;Samples;Min_cycle;Max_cycle;Signal;HPM_P1;HPM_P2
2022/01/21 00:01:20;;;;;;;4.88;1.48;;;0.60;99.90;;;;;;5005779;28;20086;-73
2022/01/21 00:03:46;;;;;;;3.55;1.17;;;0.60;99.90;;;;;;5004712;28;20034;-72
2022/01/21 00:06:13;;;;;;;5.55;1.25;;;0.60;99.90;;;;;;5005161;28;20030;-73
2022/01/21 00:08:42;;;;;;;7.15;1.45;;;0.60;99.90;;;;;;5006020;28;20030;-75
2022/01/21 00:11:09;;;;;;;8.20;1.88;;;0.70;99.90;;;;;;5005752;28;20057;-73
2022/01/21 00:13:36;;;;;;;5.10;1.60;;;0.70;99.90;;;;;;5005256;28;20022;-73
2022/01/21 00:16:08;;;;;;;10.00;2.90;;;0.70;99.90;;;;;;5001031;28;20415;-73
2022/01/21 00:18:36;;;;;;;11.93;2.72;;;0.70;99.90;;;;;;4986227;28;20106;-73
2022/01/21 00:32:00;;;;;;;7.03;1.70;;;0.80;99.90;;;;;;4966968;29;20093;-71
2022/01/21 00:34:26;;;;;;;3.95;1.38;;;0.80;99.90;;;;;;4965037;28;20043;-72
2022/01/21 00:36:52;;;;;;;5.43;1.38;;;0.80;99.90;;;;;;4966004;28;20027;-72
2022/01/21 00:39:21;;;;;;;2.65;1.50;;;0.80;99.90;;;;;;4966014;28;20096;-71
2022/01/21 00:41:58;;;;;;;11.82;1.15;;;0.80;99.90;;;;;;4965697;29;20074;-72
2022/01/21 00:44:24;;;;;;;4.18;1.30;;;0.80;99.90;;;;;;4966312;29;20867;-72
2022/01/21 00:46:50;;;;;;;8.05;1.02;;;0.90;99.90;;;;;;4965935;28;20034;-75
2022/01/21 00:49:16;;;;;;;6.32;1.63;;;0.90;99.90;;;;;;4983233;28;20480;-72
2022/01/21 00:51:42;;;;;;;4.45;1.08;;;0.90;99.90;;;;;;4985884;28;20042;-72
2022/01/21 00:54:08;;;;;;;7.00;1.75;;;0.80;99.90;;;;;;5000485;28;20049;-71
2022/01/21 00:56:33;;;;;;;6.25;2.20;;;0.80;99.90;;;;;;4985120;28;20491;-72
2022/01/21 00:58:59;;;;;;;9.88;2.80;;;0.80;99.90;;;;;;4985500;28;20030;-72
2022/01/21 01:01:25;;;;;;;5.93;1.73;;;0.80;99.90;;;;;;4985349;28;20033;-71
2022/01/21 01:03:50;;;;;;;16.50;1.05;;;0.70;99.90;;;;;;4984294;28;20038;-73
2022/01/21 01:06:16;;;;;;;5.88;1.88;;;0.70;99.90;;;;;;4983934;28;20027;-72
2022/01/21 01:08:50;;;;;;;11.70;1.73;;;0.70;99.90;;;;;;4985225;28;20038;-72
2022/01/21 01:11:26;;;;;;;;;;;0.70;99.90;;;;;;4985835;28;20083;-73
2022/01/21 01:22:06;;;;;;;11.52;1.42;;;0.60;99.90;;;;;;5004594;28;20034;-73
2022/01/21 01:27:38;;;;;;;7.10;1.77;;;0.50;99.90;;;;;;5004908;28;20033;-73
2022/01/21 01:30:06;;;;;;;7.30;0.88;;;0.60;99.90;;;;;;5003256;28;20031;-72
2022/01/21 01:32:33;;;;;;;16.20;2.30;;;0.60;99.90;;;;;;5004567;28;20057;-72
2022/01/21 01:34:59;;;;;;;22.33;2.00;;;0.60;99.90;;;;;;5004896;28;20045;-72
2022/01/21 01:37:54;;;;;;;2.78;1.67;;;0.60;99.90;;;;;;5004402;28;20030;-71
2022/01/21 01:40:28;;;;;;;3.15;1.45;;;0.60;99.90;;;;;;5004755;28;20041;-73
2022/01/21 01:43:11;;;;;;;4.20;1.00;;;0.70;99.90;;;;;;5004732;28;20033;-74
2022/01/21 01:51:00;;;;;;;2.60;1.15;;;0.80;99.90;;;;;;5008182;28;20037;-73
2022/01/21 01:53:33;;;;;;;13.57;2.30;;;0.80;99.90;;;;;;5008005;28;20065;-74
2022/01/21 01:56:00;;;;;;;2.03;0.97;;;0.90;99.90;;;;;;5008147;28;20117;-74
2022/01/21 01:58:26;;;;;;;2.40;1.23;;;0.90;99.90;;;;;;5008139;28;20031;-71
2022/01/21 02:00:51;;;;;;;7.43;1.63;;;0.90;99.90;;;;;;5008287;28;20033;-72
2022/01/21 02:03:17;;;;;;;12.40;2.22;;;1.00;99.90;;;;;;5006700;28;20026;-73
2022/01/21 02:05:43;;;;;;;7.07;1.13;;;1.00;99.90;;;;;;5007499;28;20038;-73
2022/01/21 02:08:10;;;;;;;1.92;1.10;;;1.00;99.90;;;;;;5007952;28;20030;-72
2022/01/21 02:10:37;;;;;;;2.75;1.17;;;1.00;99.90;;;;;;5007785;28;20463;-74
2022/01/21 02:13:06;;;;;;;2.95;0.95;;;1.00;99.90;;;;;;5007512;28;20081;-75
2022/01/21 02:15:35;;;;;;;6.78;1.05;;;1.10;99.90;;;;;;5005791;28;20055;-74
2022/01/21 02:23:46;;;;;;;8.25;0.77;;;1.20;99.90;;;;;;4966879;29;20086;-73
2022/01/21 02:26:12;;;;;;;1.25;1.02;;;1.20;99.90;;;;;;4983531;28;20043;-73
2022/01/21 02:28:38;;;;;;;6.28;0.88;;;1.20;99.90;;;;;;4987721;28;20027;-75
2022/01/21 02:31:05;;;;;;;15.38;1.63;;;1.20;99.90;;;;;;4970866;28;20090;-73
2022/01/21 02:33:30;;;;;;;8.20;1.25;;;1.20;99.90;;;;;;4987639;28;20034;-73
2022/01/21 02:35:56;;;;;;;0.75;0.63;;;1.20;99.90;;;;;;4987804;28;20086;-73
2022/01/21 02:38:22;;;;;;;27.40;2.85;;;1.30;99.90;;;;;;4987908;28;20042;-73
2022/01/21 02:40:47;;;;;;;0.88;0.73;;;1.30;99.90;;;;;;4987639;28;20027;-73
2022/01/21 02:43:14;;;;;;;12.48;1.77;;;1.30;99.90;;;;;;4988154;28;20373;-72
2022/01/21 02:45:45;;;;;;;8.82;1.15;;;1.30;99.90;;;;;;4987526;28;20023;-73
2022/01/21 02:48:12;;;;;;;1.67;0.68;;;1.30;99.90;;;;;;4987392;28;20023;-73
2022/01/21 02:50:38;;;;;;;6.50;1.20;;;1.30;99.90;;;;;;4987818;28;20471;-73
2022/01/21 02:53:27;;;;;;;7.43;1.42;;;1.30;99.90;;;;;;5006426;28;20065;-73
2022/01/21 02:55:50;;;;;;;3.03;1.08;;;1.40;99.90;;;;;;5006542;28;20073;-72
2022/01/21 02:58:15;;;;;;;2.38;0.77;;;1.30;99.90;;;;;;5007218;28;20097;-73
2022/01/21 03:00:41;;;;;;;2.80;0.98;;;1.30;99.90;;;;;;5006207;28;20030;-73
2022/01/21 03:03:08;;;;;;;11.07;1.63;;;1.30;99.90;;;;;;5007234;28;20026;-72
2022/01/21 03:05:38;;;;;;;5.50;1.20;;;1.30;99.90;;;;;;5007359;28;20050;-72
2022/01/21 03:08:06;;;;;;;1.85;0.98;;;1.30;99.90;;;;;;5006007;28;20030;-73
2022/01/21 03:10:31;;;;;;;2.45;1.00;;;1.30;99.90;;;;;;4988770;28;20600;-72
2022/01/21 03:12:57;;;;;;;3.25;0.70;;;1.30;99.90;;;;;;5006838;28;20089;-74
2022/01/21 03:15:23;;;;;;;6.18;1.58;;;1.30;99.90;;;;;;5006095;28;20062;-73
2022/01/21 03:17:49;;;;;;;10.93;0.90;;;1.30;99.90;;;;;;5006460;28;20027;-73
2022/01/21 03:20:15;;;;;;;7.68;1.42;;;1.30;99.90;;;;;;5006579;28;20023;-73
2022/01/21 03:22:40;;;;;;;4.75;1.48;;;1.40;99.90;;;;;;5005759;28;20037;-73
2022/01/21 03:25:07;;;;;;;3.65;1.13;;;1.40;99.90;;;;;;4989047;28;20026;-73
2022/01/21 03:27:34;;;;;;;10.05;1.73;;;1.40;99.90;;;;;;5006097;28;20033;-72
2022/01/21 03:30:03;;;;;;;4.35;1.23;;;1.40;99.90;;;;;;5005900;28;20504;-73
2022/01/21 03:32:28;;;;;;;1.95;0.80;;;1.40;99.90;;;;;;5006528;28;20049;-73
2022/01/21 03:34:54;;;;;;;13.65;1.95;;;1.50;99.90;;;;;;5006280;28;20038;-74
2022/01/21 03:37:20;;;;;;;0.25;0.10;;;1.50;99.90;;;;;;5005980;28;20034;-72
2022/01/21 03:39:46;;;;;;;4.78;0.57;;;1.50;99.90;;;;;;5005331;28;20030;-74
2022/01/21 03:42:11;;;;;;;2.05;0.52;;;1.60;99.90;;;;;;5004876;28;20022;-73
2022/01/21 03:44:37;;;;;;;0.70;0.28;;;1.60;99.90;;;;;;5006060;28;20057;-74
2022/01/21 03:47:04;;;;;;;3.33;1.27;;;1.60;99.90;;;;;;4988294;28;20036;-74
2022/01/21 03:49:37;;;;;;;8.63;1.05;;;1.70;99.90;;;;;;5003793;28;20022;-73
2022/01/21 03:52:04;;;;;;;5.78;1.58;;;1.70;99.90;;;;;;5005461;28;20026;-74
2022/01/21 03:54:30;;;;;;;0.95;0.73;;;1.60;99.90;;;;;;5005974;28;20053;-75
2022/01/21 03:56:55;;;;;;;7.30;0.95;;;1.60;99.90;;;;;;4988656;28;20035;-72
2022/01/21 03:59:21;;;;;;;3.30;0.75;;;1.60;99.90;;;;;;4987601;28;20434;-73
2022/01/21 04:01:47;;;;;;;5.90;0.85;;;1.60;99.90;;;;;;5005984;28;20479;-76
2022/01/21 04:04:13;;;;;;;10.05;1.20;;;1.50;99.90;;;;;;5005647;28;20080;-74
2022/01/21 04:06:39;;;;;;;0.98;0.22;;;1.50;99.90;;;;;;5005450;28;20027;-74
2022/01/21 04:09:05;;;;;;;3.70;0.80;;;1.50;99.90;;;;;;5006030;28;20034;-75
2022/01/21 04:11:30;;;;;;;10.10;0.85;;;1.50;99.90;;;;;;5004897;28;20034;-75
2022/01/21 04:13:56;;;;;;;5.20;0.80;;;1.50;99.90;;;;;;5005350;28;20037;-75
2022/01/21 04:16:22;;;;;;;6.38;0.45;;;1.50;99.90;;;;;;5005743;28;20050;-74
2022/01/21 04:18:49;;;;;;;12.23;1.30;;;1.50;99.90;;;;;;5005640;28;20025;-74
2022/01/21 04:21:15;;;;;;;1.77;0.73;;;1.50;99.90;;;;;;5005645;28;20025;-73
2022/01/21 04:23:41;;;;;;;13.43;1.08;;;1.50;99.90;;;;;;5005846;28;20036;-73
2022/01/21 04:26:07;;;;;;;2.83;1.23;;;1.50;99.90;;;;;;5004937;28;20062;-74
2022/01/21 04:28:32;;;;;;;3.20;0.68;;;1.50;99.90;;;;;;5005636;28;20390;-73
2022/01/21 04:30:58;;;;;;;3.65;1.10;;;1.50;99.90;;;;;;5005415;28;20022;-72
2022/01/21 04:33:24;;;;;;;4.25;0.80;;;1.50;99.90;;;;;;5005168;28;20034;-74
2022/01/21 04:35:50;;;;;;;3.83;0.95;;;1.50;99.90;;;;;;5005456;28;20038;-74
2022/01/21 04:38:20;;;;;;;6.32;1.65;;;1.50;99.90;;;;;;4986987;28;20375;-74
2022/01/21 04:40:53;;;;;;;14.70;1.00;;;1.50;99.90;;;;;;5005030;28;20069;-73
2022/01/21 04:48:53;;;;;;;4.05;0.70;;;1.60;99.90;;;;;;5005446;28;20081;-73
2022/01/21 04:51:25;;;;;;;7.95;1.02;;;1.60;99.90;;;;;;5004573;28;20125;-73
2022/01/21 04:53:51;;;;;;;5.28;0.88;;;1.60;99.90;;;;;;5002897;28;20395;-73
2022/01/21 04:56:16;;;;;;;4.65;0.50;;;1.70;99.90;;;;;;5004849;28;20042;-74
2022/01/21 04:58:43;;;;;;;11.18;1.20;;;1.70;99.90;;;;;;5004855;28;20026;-73
2022/01/21 05:01:11;;;;;;;9.23;1.33;;;1.70;99.90;;;;;;5004779;28;20042;-73
2022/01/21 05:03:38;;;;;;;8.88;1.00;;;1.70;99.90;;;;;;5005216;28;20022;-74
2022/01/21 05:06:04;;;;;;;7.45;1.55;;;1.70;99.90;;;;;;5005208;28;20051;-73
2022/01/21 05:08:39;;;;;;;3.78;0.93;;;1.70;99.90;;;;;;5004990;28;20105;-73
2022/01/21 05:11:07;;;;;;;3.53;0.80;;;1.70;99.90;;;;;;5005043;28;20436;-74
2022/01/21 05:13:39;;;;;;;7.63;1.40;;;1.80;99.90;;;;;;5004698;28;20045;-73
2022/01/21 05:16:12;;;;;;;8.00;0.85;;;1.80;99.90;;;;;;5000173;28;20055;-73
2022/01/21 05:18:37;;;;;;;2.10;0.85;;;1.80;99.90;;;;;;5000395;28;20084;-74
2022/01/21 05:21:03;;;;;;;4.68;0.88;;;1.80;99.90;;;;;;4984921;28;20042;-74
2022/01/21 05:23:29;;;;;;;0.38;0.38;;;1.80;99.90;;;;;;4988520;28;20034;-79
2022/01/21 05:25:55;;;;;;;0.88;0.70;;;1.80;99.90;;;;;;4988584;28;20042;-77
2022/01/21 05:28:23;;;;;;;1.88;0.30;;;1.80;99.90;;;;;;4989177;28;20077;-76
2022/01/21 05:30:48;;;;;;;16.63;1.15;;;1.80;99.90;;;;;;4988906;28;20034;-74
2022/01/21 05:33:14;;;;;;;5.50;0.55;;;1.80;99.90;;;;;;4989151;28;20027;-78
2022/01/21 05:35:40;;;;;;;6.18;0.47;;;1.70;99.90;;;;;;5003082;28;20049;-78
2022/01/21 05:38:07;;;;;;;3.85;0.93;;;1.70;99.90;;;;;;5004182;28;20062;-77
2022/01/21 05:40:32;;;;;;;1.38;0.63;;;1.70;99.90;;;;;;4989403;28;20023;-76
2022/01/21 05:42:58;;;;;;;2.70;0.85;;;1.70;99.90;;;;;;5002559;28;20077;-78
2022/01/21 05:48:14;;;;;;;1.55;0.45;;;1.70;99.90;;;;;;4988928;28;20065;-76
2022/01/21 05:50:40;;;;;;;0.98;0.52;;;1.70;99.90;;;;;;4988503;28;20106;-76
2022/01/21 05:53:09;;;;;;;3.20;0.70;;;1.70;99.90;;;;;;4988894;28;20522;-80
2022/01/21 05:55:40;;;;;;;5.72;0.75;;;1.70;99.90;;;;;;5004040;28;20058;-77
2022/01/21 05:58:08;;;;;;;2.58;0.70;;;1.70;99.90;;;;;;5003428;28;20030;-78
2022/01/21 06:00:34;;;;;;;4.30;1.27;;;1.70;99.90;;;;;;5003831;28;20081;-79
2022/01/21 06:03:00;;;;;;;8.45;1.48;;;1.70;99.90;;;;;;4988069;28;20031;-79
2022/01/21 06:05:25;;;;;;;6.25;0.60;;;1.70;99.90;;;;;;5003662;28;20023;-77
2022/01/21 06:07:51;;;;;;;1.75;0.43;;;1.60;99.90;;;;;;4988650;28;20050;-75
2022/01/21 06:10:17;;;;;;;1.35;0.57;;;1.70;99.90;;;;;;5002542;28;20046;-76
2022/01/21 06:12:42;;;;;;;2.85;0.90;;;1.70;99.90;;;;;;4988516;28;20026;-78
2022/01/21 06:15:09;;;;;;;3.33;1.88;;;1.70;99.90;;;;;;5002775;28;20088;-79
2022/01/21 06:17:35;;;;;;;10.38;0.73;;;1.70;99.90;;;;;;5008066;28;20054;-80
2022/01/21 06:20:01;;;;;;;2.38;1.33;;;1.60;99.90;;;;;;5008255;28;20034;-78
2022/01/21 06:22:26;;;;;;;2.92;0.95;;;1.60;99.90;;;;;;4992567;28;20030;-78
2022/01/21 06:24:53;;;;;;;1.33;0.73;;;1.60;99.90;;;;;;4984269;28;20051;-78
2022/01/21 06:27:25;;;;;;;4.75;0.90;;;1.60;99.90;;;;;;4967434;29;20023;-77
2022/01/21 06:29:51;;;;;;;0.75;0.40;;;1.70;99.90;;;;;;4967470;29;20179;-79
2022/01/21 06:32:17;;;;;;;2.08;0.57;;;1.70;99.90;;;;;;4967384;29;20032;-78
2022/01/21 06:34:42;;;;;;;4.00;1.15;;;1.70;99.90;;;;;;4980992;28;20034;-78
2022/01/21 06:37:09;;;;;;;10.95;0.50;;;1.70;99.90;;;;;;4987615;28;20051;-78
2022/01/21 06:39:36;;;;;;;5.68;1.27;;;1.80;99.90;;;;;;4987921;28;20118;-77
2022/01/21 06:42:02;;;;;;;10.45;0.95;;;1.70;99.90;;;;;;4981095;28;20471;-77
2022/01/21 06:44:28;;;;;;;6.70;1.50;;;1.70;99.90;;;;;;4967144;28;20063;-76
2022/01/21 06:46:54;;;;;;;7.75;1.08;;;1.70;99.90;;;;;;4968019;29;20025;-75
2022/01/21 06:49:19;;;;;;;8.20;0.70;;;1.70;99.90;;;;;;4983058;28;20035;-76
2022/01/21 06:51:45;;;;;;;1.42;0.43;;;1.70;99.90;;;;;;4977149;28;20031;-75
2022/01/21 06:54:10;;;;;;;7.72;1.13;;;1.70;99.90;;;;;;4969949;28;20034;-75
2022/01/21 06:56:36;;;;;;;2.28;1.83;;;1.80;99.90;;;;;;4966517;29;20043;-76
2022/01/21 06:59:03;;;;;;;6.82;1.33;;;1.80;99.90;;;;;;4968978;28;20039;-76
2022/01/21 07:01:28;;;;;;;2.63;1.25;;;1.90;99.90;;;;;;4967602;28;20060;-76
2022/01/21 07:03:57;;;;;;;9.63;1.27;;;1.80;99.90;;;;;;4971328;28;20487;-78
2022/01/21 07:06:23;;;;;;;5.22;1.08;;;1.90;99.90;;;;;;5001446;28;20700;-76
2022/01/21 07:08:48;;;;;;;1.67;0.60;;;1.80;99.90;;;;;;4987176;28;20042;-78
2022/01/21 07:11:14;;;;;;;3.97;1.23;;;1.90;99.90;;;;;;4987637;28;20033;-78
2022/01/21 07:13:40;;;;;;;3.95;1.05;;;1.90;99.90;;;;;;4987109;28;20031;-78
2022/01/21 07:16:07;;;;;;;5.95;1.30;;;1.90;99.90;;;;;;5001956;28;20423;-78
2022/01/21 07:18:32;;;;;;;8.73;1.52;;;1.90;99.90;;;;;;4985850;28;20812;-78
2022/01/21 07:20:58;;;;;;;2.97;1.05;;;1.90;99.90;;;;;;4985102;28;20562;-79
2022/01/21 07:23:25;;;;;;;10.40;1.40;;;1.80;99.90;;;;;;4983512;28;20042;-80
2022/01/21 07:25:51;;;;;;;9.13;1.70;;;1.90;99.90;;;;;;4985522;28;20395;-78
2022/01/21 07:28:18;;;;;;;6.88;0.88;;;1.80;99.90;;;;;;5001401;28;20023;-78
2022/01/21 07:30:44;;;;;;;5.85;0.85;;;1.80;99.90;;;;;;5001262;28;20029;-78
2022/01/21 07:33:09;;;;;;;2.45;0.60;;;1.80;99.90;;;;;;4985602;28;20395;-77
2022/01/21 07:35:35;;;;;;;8.32;1.02;;;1.90;99.90;;;;;;4985554;28;20047;-78
2022/01/21 07:38:01;;;;;;;4.13;0.68;;;1.80;99.90;;;;;;5001837;28;20176;-77
2022/01/21 07:40:27;;;;;;;5.13;0.77;;;1.90;99.90;;;;;;5001191;28;20035;-78
2022/01/21 07:42:53;;;;;;;3.50;0.55;;;1.90;99.90;;;;;;5001404;28;20039;-78
2022/01/21 07:45:19;;;;;;;6.78;0.73;;;1.90;99.90;;;;;;4985957;28;20023;-78
2022/01/21 07:47:44;;;;;;;7.88;0.80;;;1.90;99.90;;;;;;4985703;28;20033;-78
2022/01/21 07:50:10;;;;;;;7.65;1.90;;;2.00;99.90;;;;;;4983820;28;20030;-79
2022/01/21 07:52:36;;;;;;;5.00;1.45;;;2.00;99.90;;;;;;4986758;28;20031;-78
2022/01/21 07:55:01;;;;;;;1.90;0.63;;;2.00;99.90;;;;;;4981639;28;20039;-76
2022/01/21 07:57:27;;;;;;;9.23;2.38;;;2.00;99.90;;;;;;4983072;28;20031;-76
2022/01/21 07:59:54;;;;;;;5.88;1.02;;;2.00;99.90;;;;;;5001339;28;20102;-78
2022/01/21 08:02:30;;;;;;;4.85;0.88;;;2.00;99.90;;;;;;4985212;28;20037;-79
2022/01/21 08:04:56;;;;;;;1.98;0.98;;;2.10;99.90;;;;;;4983412;28;20027;-76
2022/01/21 08:07:22;;;;;;;6.25;1.50;;;2.10;99.90;;;;;;5001215;28;20157;-78
2022/01/21 08:09:49;;;;;;;4.20;0.52;;;2.10;99.90;;;;;;4983867;28;20081;-80
2022/01/21 08:12:16;;;;;;;1.45;0.47;;;2.10;99.90;;;;;;4984033;28;20372;-79
2022/01/21 08:14:43;;;;;;;1.15;0.60;;;2.10;99.90;;;;;;5000716;28;20054;-78
2022/01/21 08:17:10;;;;;;;3.05;0.95;;;2.10;99.90;;;;;;4984253;28;20031;-78
2022/01/21 08:19:36;;;;;;;0.93;0.75;;;2.20;99.90;;;;;;4986147;28;20074;-78
2022/01/21 08:22:02;;;;;;;2.35;0.85;;;2.20;99.90;;;;;;4977756;28;20121;-79
2022/01/21 08:24:28;;;;;;;3.92;1.15;;;2.20;99.90;;;;;;4980099;28;20027;-78
2022/01/21 08:26:53;;;;;;;7.70;1.65;;;2.20;99.90;;;;;;4985177;28;20038;-74
2022/01/21 08:29:19;;;;;;;10.27;1.60;;;2.20;99.90;;;;;;4985319;28;20027;-78
2022/01/21 08:31:45;;;;;;;5.45;1.25;;;2.20;99.90;;;;;;5000003;28;20023;-78
2022/01/21 08:34:12;;;;;;;5.18;1.33;;;2.20;99.90;;;;;;5001289;28;20027;-78
2022/01/21 08:36:39;;;;;;;4.28;1.90;;;2.30;99.90;;;;;;4985843;28;20554;-79
2022/01/21 08:39:06;;;;;;;3.15;1.70;;;2.40;99.90;;;;;;4985207;28;20140;-79
2022/01/21 08:41:32;;;;;;;3.95;1.55;;;2.40;99.90;;;;;;4983472;28;20033;-79
2022/01/21 08:43:58;;;;;;;3.40;1.08;;;2.50;99.90;;;;;;4985515;28;20043;-79
2022/01/21 08:46:23;;;;;;;4.72;2.00;;;2.50;99.90;;;;;;4983365;28;20391;-80
2022/01/21 08:48:49;;;;;;;5.00;1.20;;;2.60;99.90;;;;;;4984354;28;20037;-77
2022/01/21 08:51:22;;;;;;;8.20;1.95;;;2.60;99.90;;;;;;5000443;28;20450;-80
2022/01/21 08:53:48;;;;;;;2.63;1.30;;;2.60;99.90;;;;;;4983957;28;20487;-80
2022/01/21 08:56:22;;;;;;;3.97;1.35;;;2.70;99.90;;;;;;4995044;28;20067;-78
2022/01/21 08:58:49;;;;;;;0.98;0.77;;;2.70;99.90;;;;;;4982810;28;20062;-81
2022/01/21 09:01:16;;;;;;;8.30;1.75;;;2.70;99.90;;;;;;4999820;28;20051;-77
2022/01/21 09:03:44;;;;;;;4.43;2.22;;;2.80;99.90;;;;;;4985167;28;20431;-78
2022/01/21 09:06:12;;;;;;;2.42;1.30;;;2.80;99.90;;;;;;4984623;28;20026;-79
2022/01/21 09:08:41;;;;;;;6.97;1.58;;;2.80;99.90;;;;;;5000209;28;20031;-79
2022/01/21 09:11:07;;;;;;;4.88;1.42;;;2.90;99.90;;;;;;4981202;28;20491;-78
2022/01/21 09:13:39;;;;;;;4.22;1.25;;;2.90;99.90;;;;;;4981219;28;20034;-77
2022/01/21 09:16:09;;;;;;;8.52;1.17;;;3.00;99.90;;;;;;5000217;28;20051;-78
2022/01/21 09:18:55;;;;;;;0.85;0.38;;;3.20;99.90;;;;;;4988312;28;20027;-78
2022/01/21 09:21:23;;;;;;;3.58;0.38;;;3.20;99.90;;;;;;4978823;28;20071;-74
2022/01/21 09:23:50;;;;;;;4.95;1.77;;;3.20;99.90;;;;;;4974120;28;20042;-77
2022/01/21 09:26:20;;;;;;;19.05;1.80;;;3.20;99.90;;;;;;4973803;28;20122;-77
2022/01/21 09:28:47;;;;;;;2.65;0.52;;;3.20;99.90;;;;;;4975976;28;20038;-77
2022/01/21 09:31:23;;;;;;;5.47;0.82;;;3.20;99.90;;;;;;4982509;28;20468;-78
2022/01/21 09:33:49;;;;;;;6.40;1.17;;;3.20;99.90;;;;;;4977184;28;20031;-75
2022/01/21 09:36:18;;;;;;;8.27;0.95;;;3.30;99.90;;;;;;4984838;28;20034;-77
2022/01/21 09:38:45;;;;;;;7.80;1.02;;;3.40;99.90;;;;;;4978874;28;20028;-78
2022/01/21 09:41:11;;;;;;;2.38;1.20;;;3.50;99.90;;;;;;4965687;29;20031;-77
2022/01/21 09:43:40;;;;;;;1.73;1.13;;;3.50;99.90;;;;;;4966313;28;20034;-78
2022/01/21 09:46:08;;;;;;;6.68;1.40;;;3.50;99.90;;;;;;4964762;29;20035;-78
2022/01/21 09:48:50;;;;;;;3.45;1.73;;;3.50;99.90;;;;;;4965915;28;20956;-77
2022/01/21 09:51:16;;;;;;;2.35;1.38;;;3.50;99.90;;;;;;4965985;28;20030;-76
2022/01/21 09:53:42;;;;;;;9.95;1.88;;;3.50;99.90;;;;;;4980408;28;20058;-78
2022/01/21 09:56:09;;;;;;;3.22;1.10;;;3.50;99.90;;;;;;4970675;28;20031;-77
2022/01/21 09:58:34;;;;;;;2.15;1.10;;;3.60;99.90;;;;;;4985046;28;20041;-76
2022/01/21 10:01:06;;;;;;;1.85;1.10;;;3.60;99.90;;;;;;4999189;28;20506;-76
2022/01/21 10:03:33;;;;;;;4.47;1.83;;;3.70;99.90;;;;;;4984872;28;20451;-76
2022/01/21 10:06:00;;;;;;;15.60;1.83;;;3.70;99.90;;;;;;4966162;28;20039;-75
2022/01/21 10:08:26;;;;;;;8.02;1.20;;;3.70;99.90;;;;;;4971631;28;20027;-75
2022/01/21 10:10:52;;;;;;;8.15;1.60;;;3.80;99.90;;;;;;4988140;28;20031;-76
2022/01/21 10:13:20;;;;;;;9.90;1.27;;;3.80;99.90;;;;;;4979519;28;20038;-76
2022/01/21 10:15:47;;;;;;;4.28;1.45;;;3.80;99.90;;;;;;5000007;28;20541;-77
2022/01/21 10:18:19;;;;;;;4.80;1.77;;;3.90;99.90;;;;;;5006322;28;20037;-79
2022/01/21 10:20:56;;;;;;;1.30;0.50;;;4.00;99.90;;;;;;5006252;28;20030;-79
2022/01/21 10:23:22;;;;;;;5.93;1.10;;;4.00;99.90;;;;;;4989212;28;20026;-77
2022/01/21 10:26:11;;;;;;;4.03;1.75;;;4.10;99.90;;;;;;5007588;28;20038;-75
2022/01/21 10:28:40;;;;;;;2.08;1.17;;;4.00;99.90;;;;;;5002892;28;20026;-74
2022/01/21 10:31:13;;;;;;;2.47;1.15;;;4.00;99.90;;;;;;5002410;28;20033;-76
2022/01/21 10:33:46;;;;;;;0.73;0.60;;;4.00;99.90;;;;;;5005828;28;20030;-75
2022/01/21 10:36:26;;;;;;;3.70;1.02;;;4.10;99.90;;;;;;5005424;28;20062;-75
2022/01/21 10:39:02;;;;;;;2.05;0.98;;;4.10;99.90;;;;;;5005137;28;20040;-76
2022/01/21 10:41:33;;;;;;;3.55;0.90;;;4.20;99.90;;;;;;4987411;28;20054;-76
2022/01/21 10:44:28;;;;;;;2.90;1.13;;;4.20;99.90;;;;;;4988969;28;20026;-79
2022/01/21 10:47:14;;;;;;;4.38;1.23;;;4.20;99.90;;;;;;4984915;28;20495;-78
2022/01/21 10:49:42;;;;;;;6.78;1.05;;;4.20;99.90;;;;;;4987752;28;20054;-80
2022/01/21 10:52:17;;;;;;;9.10;2.42;;;4.30;99.90;;;;;;4978728;28;20387;-77
2022/01/21 10:54:45;;;;;;;1.88;0.73;;;4.20;99.90;;;;;;4992236;28;20090;-78
2022/01/21 10:57:14;;;;;;;4.15;1.00;;;4.20;99.90;;;;;;5003544;28;20030;-78
2022/01/21 11:00:17;;;;;;;11.10;1.88;;;4.20;99.90;;;;;;4990173;28;20685;-78
2022/01/21 11:02:50;;;;;;;1.95;1.20;;;4.20;99.90;;;;;;4989096;28;20027;-77
2022/01/21 11:05:21;;;;;;;7.55;1.00;;;4.10;99.90;;;;;;5001467;28;20062;-76
2022/01/21 11:07:54;;;;;;;17.63;1.63;;;4.10;99.90;;;;;;4985340;28;20069;-76
2022/01/21 11:10:47;;;;;;;1.92;1.00;;;4.10;99.90;;;;;;4975897;28;20031;-78
2022/01/21 11:13:13;;;;;;;13.73;1.73;;;4.10;99.90;;;;;;4988114;28;20066;-77
2022/01/21 11:15:47;;;;;;;6.10;1.15;;;4.10;99.90;;;;;;4990795;28;20145;-78
2022/01/21 11:18:16;;;;;;;;;;;4.10;99.90;;;;;;5006276;28;20061;-78
2022/01/21 11:20:48;;;;;;;11.65;1.85;;;4.20;99.90;;;;;;4999758;28;19917;-78
2022/01/21 11:23:17;;;;;;;3.92;1.45;;;4.20;99.90;;;;;;5003458;28;20038;-81
2022/01/21 11:25:49;;;;;;;2.78;0.93;;;4.20;99.90;;;;;;5003985;28;20030;-77
2022/01/21 11:28:33;;;;;;;7.80;1.40;;;4.30;99.90;;;;;;5004002;28;20026;-79
2022/01/21 11:31:00;;;;;;;5.78;1.42;;;4.40;99.90;;;;;;4987614;28;20027;-76
2022/01/21 11:33:25;;;;;;;2.10;1.25;;;4.60;99.90;;;;;;5005532;28;20034;-78
2022/01/21 11:35:52;;;;;;;1.02;0.77;;;4.60;99.90;;;;;;5004312;28;20153;-80
2022/01/21 11:38:20;;;;;;;5.43;1.23;;;4.60;99.90;;;;;;4999442;28;20121;-78
2022/01/21 11:40:49;;;;;;;7.13;1.85;;;4.60;99.90;;;;;;5003580;28;20094;-81
2022/01/21 11:43:15;;;;;;;9.20;1.70;;;4.60;99.90;;;;;;5003751;28;20030;-76
2022/01/21 11:49:00;;;;;;;3.97;1.20;;;4.70;99.90;;;;;;5005959;28;20061;-79
2022/01/21 11:51:32;;;;;;;15.32;1.30;;;4.60;99.90;;;;;;4962545;28;20072;-77
2022/01/21 11:54:10;;;;;;;0.93;0.30;;;4.70;99.90;;;;;;4987641;28;20049;-75
2022/01/21 11:56:43;;;;;;;4.90;1.95;;;4.60;99.90;;;;;;5004103;28;20073;-76
2022/01/21 11:59:38;;;;;;;11.70;2.35;;;4.60;99.90;;;;;;5005172;28;20041;-80
2022/01/21 12:02:21;;;;;;;;;;;4.60;99.90;;;;;;5004796;28;20490;-79
2022/01/21 12:04:47;;;;;;;3.17;0.65;;;4.70;99.90;;;;;;5005262;28;19905;-79
2022/01/21 12:07:34;;;;;;;4.28;1.50;;;4.70;99.90;;;;;;5005054;28;20034;-81
2022/01/21 12:10:03;;;;;;;2.78;1.10;;;4.70;99.90;;;;;;5004603;28;20030;-78
2022/01/21 12:12:53;;;;;;;11.20;1.77;;;4.80;99.90;;;;;;5004887;28;20023;-77
2022/01/21 12:15:28;;;;;;;2.95;1.98;;;4.80;99.90;;;;;;4967583;28;20058;-78
2022/01/21 12:20:55;;;;;;;11.00;1.70;;;4.90;99.90;;;;;;5003667;28;20602;-78
2022/01/21 12:23:22;;;;;;;6.80;1.77;;;4.90;99.90;;;;;;4985150;28;20114;-76
2022/01/21 12:26:08;;;;;;;5.20;1.02;;;5.10;99.90;;;;;;5002987;28;20086;-75
2022/01/21 12:28:56;;;;;;;6.13;1.50;;;5.00;99.90;;;;;;4996469;28;20030;-77
2022/01/21 12:31:49;;;;;;;11.25;1.17;;;5.20;99.90;;;;;;4973272;28;20042;-76
2022/01/21 12:34:16;;;;;;;10.48;2.65;;;5.10;99.90;;;;;;4964175;28;20035;-78
2022/01/21 12:36:52;;;;;;;8.60;2.22;;;5.20;99.90;;;;;;4994293;28;20038;-74
2022/01/21 12:39:39;;;;;;;15.30;2.55;;;5.20;99.90;;;;;;4983465;28;20027;-77
2022/01/21 12:42:20;;;;;;;3.17;1.42;;;5.20;99.90;;;;;;5001636;28;20026;-77
2022/01/21 12:44:47;;;;;;;1.48;1.02;;;5.30;99.90;;;;;;5003928;28;20510;-78
2022/01/21 12:47:37;;;;;;;6.55;1.85;;;5.30;99.90;;;;;;5003526;28;20030;-77
2022/01/21 12:50:28;;;;;;;4.97;1.63;;;5.30;99.90;;;;;;4996138;28;20053;-79
2022/01/21 12:53:16;;;;;;;5.15;1.58;;;5.40;99.90;;;;;;4995286;28;20053;-78
2022/01/21 12:55:59;;;;;;;8.68;1.58;;;5.40;99.90;;;;;;4995778;28;20046;-80
2022/01/21 12:58:31;;;;;;;11.18;1.88;;;5.40;99.90;;;;;;4985401;28;20459;-78
2022/01/21 13:01:02;;;;;;;9.63;1.60;;;5.40;99.90;;;;;;4999589;28;20027;-78
2022/01/21 13:03:51;;;;;;;7.20;1.75;;;5.50;99.90;;;;;;5002451;28;20037;-77
2022/01/21 13:06:19;;;;;;;5.03;1.33;;;5.50;99.90;;;;;;4984439;28;20034;-76
2022/01/21 13:09:10;;;;;;;8.48;1.70;;;5.60;99.90;;;;;;4974821;28;20062;-77
2022/01/21 13:11:43;;;;;;;1.30;0.95;;;5.70;99.90;;;;;;4986073;28;20101;-75
2022/01/21 13:14:25;;;;;;;5.10;0.73;;;5.80;99.90;;;;;;5003007;28;20434;-77
2022/01/21 13:17:09;;;;;;;22.48;2.50;;;5.90;99.90;;;;;;4998833;28;20051;-76
2022/01/21 13:19:54;;;;;;;9.90;2.15;;;5.90;99.90;;;;;;5002743;28;20114;-77
2022/01/21 13:22:25;;;;;;;14.93;2.15;;;6.00;99.90;;;;;;5004275;28;20034;-77
2022/01/21 13:25:08;;;;;;;12.95;1.90;;;5.90;99.90;;;;;;5003409;28;20030;-77
2022/01/21 13:27:47;;;;;;;7.70;1.15;;;5.90;99.90;;;;;;5002270;28;20041;-77
2022/01/21 13:30:15;;;;;;;12.40;2.15;;;5.80;99.90;;;;;;5003544;28;20026;-78
2022/01/21 13:32:44;;;;;;;4.97;1.88;;;5.90;99.90;;;;;;4985300;28;20049;-77
2022/01/21 13:35:21;;;;;;;11.60;1.52;;;5.80;99.90;;;;;;4983763;28;20062;-80
2022/01/21 13:38:21;;;;;;;3.72;1.67;;;5.80;99.90;;;;;;4966610;28;20496;-77
2022/01/21 13:40:56;;;;;;;11.13;2.42;;;5.70;99.90;;;;;;4957119;28;20049;-77
2022/01/21 13:43:30;;;;;;;7.57;1.33;;;5.70;99.90;;;;;;4995690;28;20054;-77
2022/01/21 13:46:15;;;;;;;;;;;5.70;99.90;;;;;;4990996;28;20030;-76
2022/01/21 13:48:41;;;;;;;12.20;1.20;;;5.70;99.90;;;;;;5007043;28;20071;-74
2022/01/21 13:51:09;;;;;;;7.28;1.98;;;5.70;99.90;;;;;;4990225;28;20368;-81
2022/01/21 13:53:38;;;;;;;7.40;1.73;;;5.70;99.90;;;;;;5007804;28;20069;-81
2022/01/21 13:56:11;;;;;;;2.55;0.88;;;5.60;99.90;;;;;;5007390;28;20553;-79